sensor_id;sensor_type;location;lat;lon;timestamp;pressure;altitude;pressure_sealevel;temperature;humidity
71239;BME280;61342;51.442;7.370;2023-06-24T00:00:24;100884.63;;;20.56;81.54
71239;BME280;61342;51.442;7.370;2023-06-24T00:01:28;100881.72;;;20.49;81.55
71239;BME280;61342;51.442;7.370;2023-06-24T00:02:29;100902.00;;;20.54;81.93
71239;BME280;61342;51.442;7.370;2023-06-24T00:03:29;100890.28;;;20.47;81.76
71239;BME280;61342;51.442;7.370;2023-06-24T00:04:41;100887.19;;;20.37;81.92
71239;BME280;61342;51.442;7.370;2023-06-24T00:05:42;100883.66;;;20.39;81.89
71239;BME280;61342;51.442;7.370;2023-06-24T00:06:50;100886.97;;;20.28;82.15
71239;BME280;61342;51.442;7.370;2023-06-24T00:07:52;100888.72;;;20.31;82.15
71239;BME280;61342;51.442;7.370;2023-06-24T00:08:57;100882.88;;;20.24;81.90
71239;BME280;61342;51.442;7.370;2023-06-24T00:10:00;100880.91;;;20.19;82.34
71239;BME280;61342;51.442;7.370;2023-06-24T00:11:06;100897.06;;;20.20;82.81
71239;BME280;61342;51.442;7.370;2023-06-24T00:12:09;100895.69;;;20.13;82.58
71239;BME280;61342;51.442;7.370;2023-06-24T00:13:10;100892.19;;;20.07;82.88
71239;BME280;61342;51.442;7.370;2023-06-24T00:14:22;100886.72;;;20.04;83.18
71239;BME280;61342;51.442;7.370;2023-06-24T00:15:44;100884.56;;;20.04;83.62
71239;BME280;61342;51.442;7.370;2023-06-24T00:16:44;100890.81;;;20.08;83.62
71239;BME280;61342;51.442;7.370;2023-06-24T00:17:46;100885.94;;;20.11;83.43
71239;BME280;61342;51.442;7.370;2023-06-24T00:18:47;100896.31;;;20.19;83.68
71239;BME280;61342;51.442;7.370;2023-06-24T00:20:06;100891.44;;;20.22;83.13
71239;BME280;61342;51.442;7.370;2023-06-24T00:21:11;100905.06;;;20.34;83.05
71239;BME280;61342;51.442;7.370;2023-06-24T00:22:13;100883.47;;;20.29;82.85
71239;BME280;61342;51.442;7.370;2023-06-24T00:23:21;100900.03;;;20.42;82.85
71239;BME280;61342;51.442;7.370;2023-06-24T00:24:25;100891.25;;;20.42;82.60
71239;BME280;61342;51.442;7.370;2023-06-24T00:25:29;100886.59;;;20.39;82.03
71239;BME280;61342;51.442;7.370;2023-06-24T00:26:33;100896.13;;;20.47;82.37
71239;BME280;61342;51.442;7.370;2023-06-24T00:27:35;100894.59;;;20.53;82.07
71239;BME280;61342;51.442;7.370;2023-06-24T00:28:36;100874.13;;;20.46;81.82
71239;BME280;61342;51.442;7.370;2023-06-24T00:29:37;100893.22;;;20.54;81.51
71239;BME280;61342;51.442;7.370;2023-06-24T00:30:44;100883.09;;;20.48;81.07
71239;BME280;61342;51.442;7.370;2023-06-24T00:32:00;100877.03;;;20.46;81.04
71239;BME280;61342;51.442;7.370;2023-06-24T00:33:01;100886.41;;;20.52;81.03
71239;BME280;61342;51.442;7.370;2023-06-24T00:34:03;100875.47;;;20.45;81.40
71239;BME280;61342;51.442;7.370;2023-06-24T00:35:07;100879.38;;;20.47;81.19
71239;BME280;61342;51.442;7.370;2023-06-24T00:36:08;100876.28;;;20.45;81.19
71239;BME280;61342;51.442;7.370;2023-06-24T00:37:12;100878.97;;;20.43;81.46
71239;BME280;61342;51.442;7.370;2023-06-24T00:38:12;100883.09;;;20.48;81.23
71239;BME280;61342;51.442;7.370;2023-06-24T00:39:13;100879.56;;;20.42;80.87
71239;BME280;61342;51.442;7.370;2023-06-24T00:40:14;100878.22;;;20.43;80.79
71239;BME280;61342;51.442;7.370;2023-06-24T00:41:24;100881.31;;;20.45;81.35
71239;BME280;61342;51.442;7.370;2023-06-24T00:42:35;100869.25;;;20.41;81.53
71239;BME280;61342;51.442;7.370;2023-06-24T00:43:41;100862.25;;;20.36;81.61
71239;BME280;61342;51.442;7.370;2023-06-24T00:44:42;100873.34;;;20.38;81.63
71239;BME280;61342;51.442;7.370;2023-06-24T00:46:07;100885.41;;;20.42;80.73
71239;BME280;61342;51.442;7.370;2023-06-24T00:47:08;100877.63;;;20.37;81.24
71239;BME280;61342;51.442;7.370;2023-06-24T00:48:20;100885.22;;;20.40;81.17
71239;BME280;61342;51.442;7.370;2023-06-24T00:50:25;100875.09;;;20.26;81.84
71239;BME280;61342;51.442;7.370;2023-06-24T00:51:28;100879.56;;;20.27;81.76
71239;BME280;61342;51.442;7.370;2023-06-24T00:52:33;100869.03;;;20.17;81.85
71239;BME280;61342;51.442;7.370;2023-06-24T00:53:37;100877.03;;;20.16;81.90
71239;BME280;61342;51.442;7.370;2023-06-24T00:54:41;100874.28;;;20.11;82.17
71239;BME280;61342;51.442;7.370;2023-06-24T00:55:41;100876.63;;;20.12;82.40
71239;BME280;61342;51.442;7.370;2023-06-24T00:56:45;100867.06;;;19.97;82.80
71239;BME280;61342;51.442;7.370;2023-06-24T00:57:58;100870.75;;;19.97;82.40
71239;BME280;61342;51.442;7.370;2023-06-24T00:59:06;100876.34;;;19.88;82.78
71239;BME280;61342;51.442;7.370;2023-06-24T01:00:08;100879.50;;;19.90;83.01
71239;BME280;61342;51.442;7.370;2023-06-24T01:01:17;100889.78;;;19.83;83.14
71239;BME280;61342;51.442;7.370;2023-06-24T01:02:26;100888.97;;;19.75;82.95
71239;BME280;61342;51.442;7.370;2023-06-24T01:03:28;100879.59;;;19.69;83.47
71239;BME280;61342;51.442;7.370;2023-06-24T01:04:31;100884.63;;;19.62;83.34
71239;BME280;61342;51.442;7.370;2023-06-24T01:05:33;100887.31;;;19.60;83.63
71239;BME280;61342;51.442;7.370;2023-06-24T01:06:36;100882.66;;;19.57;83.44
71239;BME280;61342;51.442;7.370;2023-06-24T01:07:46;100895.69;;;19.56;84.34
71239;BME280;61342;51.442;7.370;2023-06-24T01:08:56;100891.59;;;19.51;84.50
71239;BME280;61342;51.442;7.370;2023-06-24T01:09:57;100886.94;;;19.56;84.76
71239;BME280;61342;51.442;7.370;2023-06-24T01:11:03;100891.41;;;19.57;84.61
71239;BME280;61342;51.442;7.370;2023-06-24T01:12:04;100877.00;;;19.51;84.70
71239;BME280;61342;51.442;7.370;2023-06-24T01:13:15;100881.50;;;19.60;84.76
71239;BME280;61342;51.442;7.370;2023-06-24T01:14:19;100873.13;;;19.56;84.78
71239;BME280;61342;51.442;7.370;2023-06-24T01:15:23;100874.53;;;19.63;84.47
71239;BME280;61342;51.442;7.370;2023-06-24T01:18:51;100891.63;;;19.66;84.72
71239;BME280;61342;51.442;7.370;2023-06-24T01:20:27;100887.31;;;19.60;84.39
71239;BME280;61342;51.442;7.370;2023-06-24T01:25:59;100889.19;;;19.42;85.18
71239;BME280;61342;51.442;7.370;2023-06-24T01:32:47;100866.25;;;19.04;86.34
71239;BME280;61342;51.442;7.370;2023-06-24T01:34:02;100892.13;;;19.07;86.13
71239;BME280;61342;51.442;7.370;2023-06-24T01:35:35;100871.03;;;18.94;86.52
71239;BME280;61342;51.442;7.370;2023-06-24T01:38:31;100881.16;;;19.00;87.52
71239;BME280;61342;51.442;7.370;2023-06-24T01:39:41;100876.50;;;18.97;87.07
71239;BME280;61342;51.442;7.370;2023-06-24T01:40:49;100878.13;;;19.06;87.80
71239;BME280;61342;51.442;7.370;2023-06-24T01:41:56;100864.34;;;19.06;87.50
71239;BME280;61342;51.442;7.370;2023-06-24T01:43:00;100859.88;;;19.05;87.03
71239;BME280;61342;51.442;7.370;2023-06-24T01:44:04;100866.28;;;19.11;87.35
71239;BME280;61342;51.442;7.370;2023-06-24T01:45:18;100861.66;;;19.15;87.12
71239;BME280;61342;51.442;7.370;2023-06-24T01:46:22;100850.19;;;19.10;86.81
71239;BME280;61342;51.442;7.370;2023-06-24T01:47:26;100847.84;;;19.09;86.97
71239;BME280;61342;51.442;7.370;2023-06-24T01:48:35;100851.31;;;19.07;86.64
71239;BME280;61342;51.442;7.370;2023-06-24T01:49:39;100845.69;;;19.09;86.54
71239;BME280;61342;51.442;7.370;2023-06-24T01:50:53;100839.22;;;19.03;86.71
71239;BME280;61342;51.442;7.370;2023-06-24T01:52:04;100839.59;;;19.00;86.75
71239;BME280;61342;51.442;7.370;2023-06-24T01:53:08;100854.81;;;19.06;86.55
71239;BME280;61342;51.442;7.370;2023-06-24T01:54:12;100855.16;;;19.02;86.98
71239;BME280;61342;51.442;7.370;2023-06-24T01:55:19;100842.47;;;18.92;86.61
71239;BME280;61342;51.442;7.370;2023-06-24T01:56:30;100849.22;;;18.87;86.90
71239;BME280;61342;51.442;7.370;2023-06-24T01:57:37;100852.53;;;18.84;87.30
71239;BME280;61342;51.442;7.370;2023-06-24T01:58:47;100856.44;;;18.86;87.53
71239;BME280;61342;51.442;7.370;2023-06-24T01:59:58;100850.38;;;18.84;87.53
71239;BME280;61342;51.442;7.370;2023-06-24T02:01:01;100862.44;;;18.88;88.19
71239;BME280;61342;51.442;7.370;2023-06-24T02:02:03;100867.91;;;18.92;87.88
71239;BME280;61342;51.442;7.370;2023-06-24T02:03:06;100866.00;;;18.94;87.80
71239;BME280;61342;51.442;7.370;2023-06-24T02:04:17;100873.00;;;18.99;87.30
71239;BME280;61342;51.442;7.370;2023-06-24T02:05:39;100860.00;;;19.00;87.14
71239;BME280;61342;51.442;7.370;2023-06-24T02:06:41;100866.09;;;19.09;87.07
71239;BME280;61342;51.442;7.370;2023-06-24T02:07:45;100863.03;;;19.14;87.27
71239;BME280;61342;51.442;7.370;2023-06-24T02:08:52;100857.97;;;19.15;87.09
71239;BME280;61342;51.442;7.370;2023-06-24T02:09:54;100852.00;;;19.20;86.90
71239;BME280;61342;51.442;7.370;2023-06-24T02:10:59;100865.44;;;19.31;86.56
71239;BME280;61342;51.442;7.370;2023-06-24T02:12:02;100870.34;;;19.43;86.48
71239;BME280;61342;51.442;7.370;2023-06-24T02:13:07;100865.50;;;19.46;85.72
71239;BME280;61342;51.442;7.370;2023-06-24T02:14:10;100868.25;;;19.51;85.32
71239;BME280;61342;51.442;7.370;2023-06-24T02:15:12;100867.88;;;19.55;85.52
71239;BME280;61342;51.442;7.370;2023-06-24T02:16:14;100876.06;;;19.64;85.44
71239;BME280;61342;51.442;7.370;2023-06-24T02:17:37;100865.97;;;19.65;84.80
71239;BME280;61342;51.442;7.370;2023-06-24T02:18:40;100879.19;;;19.66;84.70
71239;BME280;61342;51.442;7.370;2023-06-24T02:19:47;100874.13;;;19.66;84.74
71239;BME280;61342;51.442;7.370;2023-06-24T02:20:49;100864.22;;;19.62;84.42
71239;BME280;61342;51.442;7.370;2023-06-24T02:21:59;100865.19;;;19.64;84.54
71239;BME280;61342;51.442;7.370;2023-06-24T02:23:11;100857.59;;;19.61;84.67
71239;BME280;61342;51.442;7.370;2023-06-24T02:26:00;100853.09;;;19.53;84.99
71239;BME280;61342;51.442;7.370;2023-06-24T02:27:05;100859.31;;;19.49;84.63
71239;BME280;61342;51.442;7.370;2023-06-24T02:28:07;100852.28;;;19.45;84.90
71239;BME280;61342;51.442;7.370;2023-06-24T02:29:14;100855.38;;;19.39;85.10
71239;BME280;61342;51.442;7.370;2023-06-24T02:30:15;100854.97;;;19.35;85.28
71239;BME280;61342;51.442;7.370;2023-06-24T02:31:17;100854.75;;;19.33;85.79
71239;BME280;61342;51.442;7.370;2023-06-24T02:32:28;100859.00;;;19.25;85.47
71239;BME280;61342;51.442;7.370;2023-06-24T02:33:35;100853.69;;;19.16;85.70
71239;BME280;61342;51.442;7.370;2023-06-24T02:34:36;100850.38;;;19.12;86.08
71239;BME280;61342;51.442;7.370;2023-06-24T02:35:38;100843.56;;;19.09;86.55
71239;BME280;61342;51.442;7.370;2023-06-24T02:36:42;100849.53;;;19.04;86.36
71239;BME280;61342;51.442;7.370;2023-06-24T02:37:43;100856.16;;;19.05;87.08
71239;BME280;61342;51.442;7.370;2023-06-24T02:38:57;100854.16;;;19.00;87.38
71239;BME280;61342;51.442;7.370;2023-06-24T02:40:03;100864.91;;;19.05;87.57
71239;BME280;61342;51.442;7.370;2023-06-24T02:41:06;100866.03;;;19.02;87.66
71239;BME280;61342;51.442;7.370;2023-06-24T02:42:41;100859.63;;;19.03;87.84
71239;BME280;61342;51.442;7.370;2023-06-24T02:43:45;100851.03;;;18.98;87.39
71239;BME280;61342;51.442;7.370;2023-06-24T02:44:48;100845.63;;;19.02;87.52
71239;BME280;61342;51.442;7.370;2023-06-24T02:45:52;100857.94;;;19.08;87.45
71239;BME280;61342;51.442;7.370;2023-06-24T02:46:55;100846.19;;;19.00;87.42
71239;BME280;61342;51.442;7.370;2023-06-24T02:48:04;100864.09;;;19.04;87.75
71239;BME280;61342;51.442;7.370;2023-06-24T02:49:21;100854.53;;;18.96;87.35
71239;BME280;61342;51.442;7.370;2023-06-24T02:50:35;100851.63;;;18.96;87.62
71239;BME280;61342;51.442;7.370;2023-06-24T02:51:38;100857.25;;;18.94;87.65
71239;BME280;61342;51.442;7.370;2023-06-24T02:52:49;100869.84;;;18.89;87.33
71239;BME280;61342;51.442;7.370;2023-06-24T02:53:51;100864.78;;;18.90;87.57
71239;BME280;61342;51.442;7.370;2023-06-24T02:54:58;100854.22;;;18.79;87.74
71239;BME280;61342;51.442;7.370;2023-06-24T02:56:00;100859.13;;;18.84;88.14
71239;BME280;61342;51.442;7.370;2023-06-24T02:57:09;100855.16;;;18.74;88.17
71239;BME280;61342;51.442;7.370;2023-06-24T02:58:17;100855.53;;;18.71;88.36
71239;BME280;61342;51.442;7.370;2023-06-24T02:59:18;100865.44;;;18.68;88.41
71239;BME280;61342;51.442;7.370;2023-06-24T03:00:22;100865.97;;;18.66;88.62
71239;BME280;61342;51.442;7.370;2023-06-24T03:01:26;100865.34;;;18.60;88.97
71239;BME280;61342;51.442;7.370;2023-06-24T03:02:28;100862.03;;;18.56;88.98
71239;BME280;61342;51.442;7.370;2023-06-24T03:03:30;100860.81;;;18.52;89.12
71239;BME280;61342;51.442;7.370;2023-06-24T03:04:31;100856.72;;;18.48;89.43
71239;BME280;61342;51.442;7.370;2023-06-24T03:05:38;100869.13;;;18.48;89.57
71239;BME280;61342;51.442;7.370;2023-06-24T03:06:40;100861.69;;;18.40;89.21
71239;BME280;61342;51.442;7.370;2023-06-24T03:07:45;100862.03;;;18.36;89.86
71239;BME280;61342;51.442;7.370;2023-06-24T03:08:47;100865.19;;;18.38;90.29
71239;BME280;61342;51.442;7.370;2023-06-24T03:09:48;100861.84;;;18.34;90.41
71239;BME280;61342;51.442;7.370;2023-06-24T03:10:49;100864.19;;;18.36;90.75
71239;BME280;61342;51.442;7.370;2023-06-24T03:11:50;100857.94;;;18.32;91.03
71239;BME280;61342;51.442;7.370;2023-06-24T03:13:14;100877.59;;;18.39;90.68
71239;BME280;61342;51.442;7.370;2023-06-24T03:14:17;100872.00;;;18.41;91.24
71239;BME280;61342;51.442;7.370;2023-06-24T03:15:39;100879.81;;;18.46;91.08
71239;BME280;61342;51.442;7.370;2023-06-24T03:16:40;100871.06;;;18.46;91.23
71239;BME280;61342;51.442;7.370;2023-06-24T03:17:40;100875.38;;;18.52;90.53
71239;BME280;61342;51.442;7.370;2023-06-24T03:18:47;100866.44;;;18.50;90.85
71239;BME280;61342;51.442;7.370;2023-06-24T03:19:48;100861.75;;;18.47;90.80
71239;BME280;61342;51.442;7.370;2023-06-24T03:20:49;100866.44;;;18.50;90.74
71239;BME280;61342;51.442;7.370;2023-06-24T03:21:50;100874.41;;;18.50;90.34
71239;BME280;61342;51.442;7.370;2023-06-24T03:22:54;100872.84;;;18.49;90.79
71239;BME280;61342;51.442;7.370;2023-06-24T03:23:56;100872.03;;;18.48;90.53
71239;BME280;61342;51.442;7.370;2023-06-24T03:24:59;100870.09;;;18.43;90.77
71239;BME280;61342;51.442;7.370;2023-06-24T03:26:02;100868.72;;;18.44;91.11
71239;BME280;61342;51.442;7.370;2023-06-24T03:27:06;100863.19;;;18.33;90.97
71239;BME280;61342;51.442;7.370;2023-06-24T03:28:31;100870.34;;;18.32;91.56
71239;BME280;61342;51.442;7.370;2023-06-24T03:29:35;100858.28;;;18.28;91.19
71239;BME280;61342;51.442;7.370;2023-06-24T03:30:38;100860.91;;;18.19;91.87
71239;BME280;61342;51.442;7.370;2023-06-24T03:31:41;100871.66;;;18.24;91.97
71239;BME280;61342;51.442;7.370;2023-06-24T03:32:46;100864.63;;;18.19;92.37
71239;BME280;61342;51.442;7.370;2023-06-24T03:34:05;100868.66;;;18.16;92.07
71239;BME280;61342;51.442;7.370;2023-06-24T03:35:06;100862.38;;;18.12;92.81
71239;BME280;61342;51.442;7.370;2023-06-24T03:36:10;100861.38;;;18.10;92.70
71239;BME280;61342;51.442;7.370;2023-06-24T03:37:19;100872.03;;;18.07;92.77
71239;BME280;61342;51.442;7.370;2023-06-24T03:38:23;100872.97;;;18.02;93.15
71239;BME280;61342;51.442;7.370;2023-06-24T03:39:25;100869.06;;;18.00;93.56
71239;BME280;61342;51.442;7.370;2023-06-24T03:40:25;100871.31;;;17.94;93.51
71239;BME280;61342;51.442;7.370;2023-06-24T03:41:29;100872.53;;;17.98;93.92
71239;BME280;61342;51.442;7.370;2023-06-24T03:42:32;100874.88;;;18.00;94.27
71239;BME280;61342;51.442;7.370;2023-06-24T03:43:35;100872.88;;;17.95;94.31
71239;BME280;61342;51.442;7.370;2023-06-24T03:44:36;100884.94;;;17.99;94.32
71239;BME280;61342;51.442;7.370;2023-06-24T03:45:41;100875.66;;;18.00;94.50
71239;BME280;61342;51.442;7.370;2023-06-24T03:46:45;100882.91;;;18.07;94.57
71239;BME280;61342;51.442;7.370;2023-06-24T03:47:46;100879.41;;;18.08;94.77
71239;BME280;61342;51.442;7.370;2023-06-24T03:48:50;100869.91;;;18.08;94.72
71239;BME280;61342;51.442;7.370;2023-06-24T03:50:00;100870.34;;;18.12;94.82
71239;BME280;61342;51.442;7.370;2023-06-24T03:51:01;100873.44;;;18.14;94.31
71239;BME280;61342;51.442;7.370;2023-06-24T03:52:08;100868.09;;;18.18;94.43
71239;BME280;61342;51.442;7.370;2023-06-24T03:53:30;100877.81;;;18.20;94.11
71239;BME280;61342;51.442;7.370;2023-06-24T03:54:51;100891.09;;;18.29;94.25
71239;BME280;61342;51.442;7.370;2023-06-24T03:56:02;100871.50;;;18.29;94.21
71239;BME280;61342;51.442;7.370;2023-06-24T03:57:02;100862.41;;;18.33;93.62
71239;BME280;61342;51.442;7.370;2023-06-24T03:58:16;100884.06;;;18.45;93.56
71239;BME280;61342;51.442;7.370;2023-06-24T03:59:18;100872.63;;;18.47;93.61
71239;BME280;61342;51.442;7.370;2023-06-24T04:00:30;100885.91;;;18.55;93.09
71239;BME280;61342;51.442;7.370;2023-06-24T04:01:33;100871.91;;;18.53;92.70
71239;BME280;61342;51.442;7.370;2023-06-24T04:02:34;100884.59;;;18.63;92.54
71239;BME280;61342;51.442;7.370;2023-06-24T04:03:36;100875.09;;;18.63;92.62
71239;BME280;61342;51.442;7.370;2023-06-24T04:04:37;100878.59;;;18.61;92.54
71239;BME280;61342;51.442;7.370;2023-06-24T04:05:38;100882.75;;;18.73;92.02
71239;BME280;61342;51.442;7.370;2023-06-24T04:06:39;100886.78;;;18.70;92.11
71239;BME280;61342;51.442;7.370;2023-06-24T04:07:40;100873.59;;;18.69;91.91
71239;BME280;61342;51.442;7.370;2023-06-24T04:08:40;100882.16;;;18.75;91.93
71239;BME280;61342;51.442;7.370;2023-06-24T04:09:44;100877.13;;;18.75;91.81
71239;BME280;61342;51.442;7.370;2023-06-24T04:10:45;100874.44;;;18.77;91.48
71239;BME280;61342;51.442;7.370;2023-06-24T04:11:53;100873.03;;;18.78;91.09
71239;BME280;61342;51.442;7.370;2023-06-24T04:13:00;100878.16;;;18.85;91.31
71239;BME280;61342;51.442;7.370;2023-06-24T04:14:17;100869.44;;;18.85;91.33
71239;BME280;61342;51.442;7.370;2023-06-24T04:15:17;100880.00;;;18.96;91.47
71239;BME280;61342;51.442;7.370;2023-06-24T04:16:18;100876.56;;;19.05;91.49
71239;BME280;61342;51.442;7.370;2023-06-24T04:17:32;100878.34;;;19.08;90.69
71239;BME280;61342;51.442;7.370;2023-06-24T04:18:33;100877.94;;;19.11;90.52
71239;BME280;61342;51.442;7.370;2023-06-24T04:19:34;100874.31;;;19.18;90.39
71239;BME280;61342;51.442;7.370;2023-06-24T04:20:35;100873.34;;;19.23;90.12
71239;BME280;61342;51.442;7.370;2023-06-24T04:21:41;100877.47;;;19.27;89.73
71239;BME280;61342;51.442;7.370;2023-06-24T04:22:53;100867.34;;;19.21;89.35
71239;BME280;61342;51.442;7.370;2023-06-24T04:23:53;100869.47;;;19.20;89.56
71239;BME280;61342;51.442;7.370;2023-06-24T04:24:57;100873.34;;;19.23;89.77
71239;BME280;61342;51.442;7.370;2023-06-24T04:26:03;100878.22;;;19.20;89.53
71239;BME280;61342;51.442;7.370;2023-06-24T04:27:10;100869.22;;;19.11;89.34
71239;BME280;61342;51.442;7.370;2023-06-24T04:28:14;100871.94;;;19.09;89.71
71239;BME280;61342;51.442;7.370;2023-06-24T04:29:18;100870.72;;;19.05;89.63
71239;BME280;61342;51.442;7.370;2023-06-24T04:30:18;100877.19;;;19.10;90.42
71239;BME280;61342;51.442;7.370;2023-06-24T04:31:45;100881.94;;;19.01;90.06
71239;BME280;61342;51.442;7.370;2023-06-24T04:33:00;100875.84;;;18.91;90.31
71239;BME280;61342;51.442;7.370;2023-06-24T04:34:22;100881.13;;;18.93;90.77
71239;BME280;61342;51.442;7.370;2023-06-24T04:35:39;100867.84;;;18.84;91.04
71239;BME280;61342;51.442;7.370;2023-06-24T04:36:42;100888.47;;;18.86;91.27
71239;BME280;61342;51.442;7.370;2023-06-24T04:37:43;100877.19;;;18.83;91.45
71239;BME280;61342;51.442;7.370;2023-06-24T04:38:55;100885.34;;;18.84;91.75
71239;BME280;61342;51.442;7.370;2023-06-24T04:39:58;100878.47;;;18.74;91.85
71239;BME280;61342;51.442;7.370;2023-06-24T04:40:59;100882.16;;;18.75;91.79
71239;BME280;61342;51.442;7.370;2023-06-24T04:42:04;100883.16;;;18.77;92.14
71239;BME280;61342;51.442;7.370;2023-06-24T04:43:05;100891.53;;;18.81;92.61
71239;BME280;61342;51.442;7.370;2023-06-24T04:44:06;100890.94;;;18.82;92.41
71239;BME280;61342;51.442;7.370;2023-06-24T04:45:07;100891.59;;;18.88;92.68
71239;BME280;61342;51.442;7.370;2023-06-24T04:46:17;100876.59;;;18.84;92.15
71239;BME280;61342;51.442;7.370;2023-06-24T04:47:20;100886.16;;;18.92;92.71
71239;BME280;61342;51.442;7.370;2023-06-24T04:48:27;100892.81;;;19.00;92.25
71239;BME280;61342;51.442;7.370;2023-06-24T04:49:36;100889.78;;;19.06;91.86
71239;BME280;61342;51.442;7.370;2023-06-24T04:50:56;100890.44;;;19.19;91.36
71239;BME280;61342;51.442;7.370;2023-06-24T04:52:02;100882.69;;;19.21;91.03
71239;BME280;61342;51.442;7.370;2023-06-24T04:53:03;100896.16;;;19.32;90.27
71239;BME280;61342;51.442;7.370;2023-06-24T04:54:03;100882.16;;;19.30;90.47
71239;BME280;61342;51.442;7.370;2023-06-24T04:55:16;100881.00;;;19.33;89.59
71239;BME280;61342;51.442;7.370;2023-06-24T04:56:20;100881.22;;;19.35;89.73
71239;BME280;61342;51.442;7.370;2023-06-24T04:57:26;100879.28;;;19.38;89.28
71239;BME280;61342;51.442;7.370;2023-06-24T04:58:27;100892.69;;;19.41;89.23
71239;BME280;61342;51.442;7.370;2023-06-24T04:59:28;100871.88;;;19.37;88.89
71239;BME280;61342;51.442;7.370;2023-06-24T05:00:32;100872.09;;;19.39;89.03
71239;BME280;61342;51.442;7.370;2023-06-24T05:01:36;100878.34;;;19.43;89.09
71239;BME280;61342;51.442;7.370;2023-06-24T05:02:37;100873.63;;;19.40;89.13
71239;BME280;61342;51.442;7.370;2023-06-24T05:03:37;100879.69;;;19.42;89.13
71239;BME280;61342;51.442;7.370;2023-06-24T05:04:40;100870.72;;;19.40;88.95
71239;BME280;61342;51.442;7.370;2023-06-24T05:05:44;100887.69;;;19.49;88.67
71239;BME280;61342;51.442;7.370;2023-06-24T05:06:48;100886.91;;;19.48;88.46
71239;BME280;61342;51.442;7.370;2023-06-24T05:07:51;100881.84;;;19.49;88.62
71239;BME280;61342;51.442;7.370;2023-06-24T05:08:56;100881.09;;;19.48;88.50
71239;BME280;61342;51.442;7.370;2023-06-24T05:09:57;100887.31;;;19.52;88.40
71239;BME280;61342;51.442;7.370;2023-06-24T05:11:02;100892.56;;;19.54;88.44
71239;BME280;61342;51.442;7.370;2023-06-24T05:12:06;100889.66;;;19.54;88.74
71239;BME280;61342;51.442;7.370;2023-06-24T05:13:10;100880.69;;;19.52;88.60
71239;BME280;61342;51.442;7.370;2023-06-24T05:14:14;100885.38;;;19.55;88.98
71239;BME280;61342;51.442;7.370;2023-06-24T05:15:15;100876.81;;;19.57;89.02
71239;BME280;61342;51.442;7.370;2023-06-24T05:16:16;100876.88;;;19.64;88.97
71239;BME280;61342;51.442;7.370;2023-06-24T05:17:27;100873.34;;;19.66;88.80
71239;BME280;61342;51.442;7.370;2023-06-24T05:18:31;100872.59;;;19.72;88.59
71239;BME280;61342;51.442;7.370;2023-06-24T05:19:32;100878.66;;;19.82;88.07
71239;BME280;61342;51.442;7.370;2023-06-24T05:21:01;100887.44;;;19.89;87.70
71239;BME280;61342;51.442;7.370;2023-06-24T05:22:02;100881.06;;;19.98;87.47
71239;BME280;61342;51.442;7.370;2023-06-24T05:23:02;100878.34;;;20.00;87.00
71239;BME280;61342;51.442;7.370;2023-06-24T05:24:03;100871.16;;;20.01;86.85
71239;BME280;61342;51.442;7.370;2023-06-24T05:25:05;100872.34;;;20.06;85.86
71239;BME280;61342;51.442;7.370;2023-06-24T05:26:08;100868.84;;;20.07;85.85
71239;BME280;61342;51.442;7.370;2023-06-24T05:27:09;100880.13;;;20.11;85.78
71239;BME280;61342;51.442;7.370;2023-06-24T05:28:12;100869.03;;;20.09;85.54
71239;BME280;61342;51.442;7.370;2023-06-24T05:29:16;100881.50;;;20.17;84.96
71239;BME280;61342;51.442;7.370;2023-06-24T05:30:28;100872.72;;;20.17;84.54
71239;BME280;61342;51.442;7.370;2023-06-24T05:31:30;100866.31;;;20.11;84.78
71239;BME280;61342;51.442;7.370;2023-06-24T05:32:31;100866.88;;;20.17;84.87
71239;BME280;61342;51.442;7.370;2023-06-24T05:33:32;100870.78;;;20.20;84.14
71239;BME280;61342;51.442;7.370;2023-06-24T05:34:33;100871.19;;;20.24;84.45
71239;BME280;61342;51.442;7.370;2023-06-24T05:35:35;100873.13;;;20.21;84.15
71239;BME280;61342;51.442;7.370;2023-06-24T05:36:46;100873.50;;;20.25;83.97
71239;BME280;61342;51.442;7.370;2023-06-24T05:37:47;100873.34;;;20.23;83.77
71239;BME280;61342;51.442;7.370;2023-06-24T05:38:48;100878.22;;;20.28;83.48
71239;BME280;61342;51.442;7.370;2023-06-24T05:39:49;100878.22;;;20.28;83.85
71239;BME280;61342;51.442;7.370;2023-06-24T05:40:50;100866.31;;;20.26;83.41
71239;BME280;61342;51.442;7.370;2023-06-24T05:41:53;100879.38;;;20.32;83.49
71239;BME280;61342;51.442;7.370;2023-06-24T05:42:56;100876.25;;;20.38;82.97
71239;BME280;61342;51.442;7.370;2023-06-24T05:44:04;100878.00;;;20.41;83.50
71239;BME280;61342;51.442;7.370;2023-06-24T05:45:06;100872.19;;;20.48;82.82
71239;BME280;61342;51.442;7.370;2023-06-24T05:46:17;100866.94;;;20.54;82.50
71239;BME280;61342;51.442;7.370;2023-06-24T05:47:18;100872.75;;;20.69;82.26
71239;BME280;61342;51.442;7.370;2023-06-24T05:48:20;100864.63;;;20.75;82.03
71239;BME280;61342;51.442;7.370;2023-06-24T05:49:21;100868.69;;;20.87;82.05
71239;BME280;61342;51.442;7.370;2023-06-24T05:50:21;100870.97;;;20.96;81.51
71239;BME280;61342;51.442;7.370;2023-06-24T05:51:22;100867.66;;;21.07;81.15
71239;BME280;61342;51.442;7.370;2023-06-24T05:52:28;100880.50;;;21.19;80.21
71239;BME280;61342;51.442;7.370;2023-06-24T05:53:37;100877.38;;;21.24;80.02
71239;BME280;61342;51.442;7.370;2023-06-24T05:54:43;100870.53;;;21.29;79.18
71239;BME280;61342;51.442;7.370;2023-06-24T05:55:43;100861.16;;;21.38;78.50
71239;BME280;61342;51.442;7.370;2023-06-24T05:56:44;100863.63;;;21.49;78.54
71239;BME280;61342;51.442;7.370;2023-06-24T05:57:45;100869.47;;;21.56;77.92
71239;BME280;61342;51.442;7.370;2023-06-24T05:58:46;100865.75;;;21.63;77.73
71239;BME280;61342;51.442;7.370;2023-06-24T05:59:46;100869.81;;;21.68;77.52